sensor_id;sensor_type;location;lat;lon;timestamp;temperature;humidity
13322;DHT22;6730;46.248;6.930;2024-03-22T00:01:49;11.30;99.90
13322;DHT22;6730;46.248;6.930;2024-03-22T00:04:16;11.30;99.90
13322;DHT22;6730;46.248;6.930;2024-03-22T00:06:42;11.20;99.90
13322;DHT22;6730;46.248;6.930;2024-03-22T00:09:09;11.10;99.90
13322;DHT22;6730;46.248;6.930;2024-03-22T00:11:35;11.10;99.90
13322;DHT22;6730;46.248;6.930;2024-03-22T00:14:01;11.20;99.90
13322;DHT22;6730;46.248;6.930;2024-03-22T00:16:27;11.20;99.90
13322;DHT22;6730;46.248;6.930;2024-03-22T00:18:53;11.20;99.90
13322;DHT22;6730;46.248;6.930;2024-03-22T00:21:19;11.20;99.90
13322;DHT22;6730;46.248;6.930;2024-03-22T00:23:47;11.20;99.90
13322;DHT22;6730;46.248;6.930;2024-03-22T00:26:13;11.20;99.90
13322;DHT22;6730;46.248;6.930;2024-03-22T00:28:39;11.20;99.90
13322;DHT22;6730;46.248;6.930;2024-03-22T00:31:04;11.10;99.90
13322;DHT22;6730;46.248;6.930;2024-03-22T00:33:30;11.10;99.90
13322;DHT22;6730;46.248;6.930;2024-03-22T00:35:55;11.10;99.90
13322;DHT22;6730;46.248;6.930;2024-03-22T00:38:21;11.10;99.90
13322;DHT22;6730;46.248;6.930;2024-03-22T00:40:47;11.10;99.90
13322;DHT22;6730;46.248;6.930;2024-03-22T00:43:12;11.10;99.90
13322;DHT22;6730;46.248;6.930;2024-03-22T00:45:38;11.10;99.90
13322;DHT22;6730;46.248;6.930;2024-03-22T00:48:04;11.10;99.90
13322;DHT22;6730;46.248;6.930;2024-03-22T00:50:30;11.10;99.90
13322;DHT22;6730;46.248;6.930;2024-03-22T00:52:56;11.10;99.90
13322;DHT22;6730;46.248;6.930;2024-03-22T00:55:22;11.10;99.90
13322;DHT22;6730;46.248;6.930;2024-03-22T00:57:48;11.30;99.90
13322;DHT22;6730;46.248;6.930;2024-03-22T01:00:14;11.40;99.90
13322;DHT22;6730;46.248;6.930;2024-03-22T01:02:41;11.40;99.90
13322;DHT22;6730;46.248;6.930;2024-03-22T01:05:07;11.30;99.90
13322;DHT22;6730;46.248;6.930;2024-03-22T01:07:32;11.10;99.90
13322;DHT22;6730;46.248;6.930;2024-03-22T01:09:58;11.10;99.90
13322;DHT22;6730;46.248;6.930;2024-03-22T01:12:24;11.10;99.90
13322;DHT22;6730;46.248;6.930;2024-03-22T01:14:49;11.10;99.90
13322;DHT22;6730;46.248;6.930;2024-03-22T01:17:15;11.10;99.90
13322;DHT22;6730;46.248;6.930;2024-03-22T01:19:41;11.30;99.90
13322;DHT22;6730;46.248;6.930;2024-03-22T01:22:06;11.20;99.90
13322;DHT22;6730;46.248;6.930;2024-03-22T01:24:32;11.10;99.90
13322;DHT22;6730;46.248;6.930;2024-03-22T01:26:58;11.10;99.90
13322;DHT22;6730;46.248;6.930;2024-03-22T01:29:23;10.90;99.90
13322;DHT22;6730;46.248;6.930;2024-03-22T01:31:49;10.90;99.90
13322;DHT22;6730;46.248;6.930;2024-03-22T01:34:15;10.80;99.90
13322;DHT22;6730;46.248;6.930;2024-03-22T01:36:40;10.70;99.90
13322;DHT22;6730;46.248;6.930;2024-03-22T01:39:06;10.70;99.90
13322;DHT22;6730;46.248;6.930;2024-03-22T01:41:32;10.70;99.90
13322;DHT22;6730;46.248;6.930;2024-03-22T01:43:58;10.60;99.90
13322;DHT22;6730;46.248;6.930;2024-03-22T01:46:24;10.60;99.90
13322;DHT22;6730;46.248;6.930;2024-03-22T01:48:50;10.70;99.90
13322;DHT22;6730;46.248;6.930;2024-03-22T01:51:17;10.60;99.90
13322;DHT22;6730;46.248;6.930;2024-03-22T01:53:43;10.50;99.90
13322;DHT22;6730;46.248;6.930;2024-03-22T01:56:10;10.50;99.90
13322;DHT22;6730;46.248;6.930;2024-03-22T01:58:36;10.60;99.90
13322;DHT22;6730;46.248;6.930;2024-03-22T02:01:02;10.60;99.90
13322;DHT22;6730;46.248;6.930;2024-03-22T02:03:28;10.60;99.90
13322;DHT22;6730;46.248;6.930;2024-03-22T02:05:53;10.40;99.90
13322;DHT22;6730;46.248;6.930;2024-03-22T02:08:19;10.40;99.90
13322;DHT22;6730;46.248;6.930;2024-03-22T02:10:45;10.40;99.90
13322;DHT22;6730;46.248;6.930;2024-03-22T02:13:11;10.50;99.90
13322;DHT22;6730;46.248;6.930;2024-03-22T02:15:37;10.50;99.90
13322;DHT22;6730;46.248;6.930;2024-03-22T02:18:03;10.40;99.90
13322;DHT22;6730;46.248;6.930;2024-03-22T02:20:28;10.50;99.90
13322;DHT22;6730;46.248;6.930;2024-03-22T02:22:54;10.50;99.90
13322;DHT22;6730;46.248;6.930;2024-03-22T02:25:19;10.70;99.90
13322;DHT22;6730;46.248;6.930;2024-03-22T02:27:45;10.60;99.90
13322;DHT22;6730;46.248;6.930;2024-03-22T02:30:18;10.60;99.90
13322;DHT22;6730;46.248;6.930;2024-03-22T02:32:44;10.80;99.90
13322;DHT22;6730;46.248;6.930;2024-03-22T02:35:09;10.90;99.90
13322;DHT22;6730;46.248;6.930;2024-03-22T02:37:35;10.90;99.90
13322;DHT22;6730;46.248;6.930;2024-03-22T02:40:01;10.80;99.90
13322;DHT22;6730;46.248;6.930;2024-03-22T02:42:26;10.70;99.90
13322;DHT22;6730;46.248;6.930;2024-03-22T02:44:52;10.70;99.90
13322;DHT22;6730;46.248;6.930;2024-03-22T02:47:18;10.50;99.90
13322;DHT22;6730;46.248;6.930;2024-03-22T02:49:44;10.40;99.90
13322;DHT22;6730;46.248;6.930;2024-03-22T02:52:10;10.30;99.90
13322;DHT22;6730;46.248;6.930;2024-03-22T02:54:35;10.40;99.90
13322;DHT22;6730;46.248;6.930;2024-03-22T02:57:01;10.30;99.90
13322;DHT22;6730;46.248;6.930;2024-03-22T02:59:29;10.30;99.90
13322;DHT22;6730;46.248;6.930;2024-03-22T03:01:55;10.50;99.90
13322;DHT22;6730;46.248;6.930;2024-03-22T03:04:21;10.50;99.90
13322;DHT22;6730;46.248;6.930;2024-03-22T03:06:46;10.50;99.90
13322;DHT22;6730;46.248;6.930;2024-03-22T03:09:12;10.50;99.90
13322;DHT22;6730;46.248;6.930;2024-03-22T03:11:39;10.40;99.90
13322;DHT22;6730;46.248;6.930;2024-03-22T03:14:05;10.70;99.90
13322;DHT22;6730;46.248;6.930;2024-03-22T03:16:30;10.80;99.90
13322;DHT22;6730;46.248;6.930;2024-03-22T03:18:56;10.80;99.90
13322;DHT22;6730;46.248;6.930;2024-03-22T03:21:22;10.50;99.90
13322;DHT22;6730;46.248;6.930;2024-03-22T03:23:47;10.40;99.90
13322;DHT22;6730;46.248;6.930;2024-03-22T03:26:13;10.50;99.90
13322;DHT22;6730;46.248;6.930;2024-03-22T03:28:39;10.70;99.90
13322;DHT22;6730;46.248;6.930;2024-03-22T03:31:04;10.50;99.90
13322;DHT22;6730;46.248;6.930;2024-03-22T03:33:30;10.40;99.90
13322;DHT22;6730;46.248;6.930;2024-03-22T03:35:56;10.30;99.90
13322;DHT22;6730;46.248;6.930;2024-03-22T03:38:22;10.30;99.90
13322;DHT22;6730;46.248;6.930;2024-03-22T03:40:48;10.30;99.90
13322;DHT22;6730;46.248;6.930;2024-03-22T03:43:14;10.30;99.90
13322;DHT22;6730;46.248;6.930;2024-03-22T03:45:39;10.40;99.90
13322;DHT22;6730;46.248;6.930;2024-03-22T03:48:05;10.40;99.90
13322;DHT22;6730;46.248;6.930;2024-03-22T03:50:31;10.30;99.90
13322;DHT22;6730;46.248;6.930;2024-03-22T03:52:57;10.30;99.90
13322;DHT22;6730;46.248;6.930;2024-03-22T03:55:23;10.50;99.90
13322;DHT22;6730;46.248;6.930;2024-03-22T03:57:51;10.70;99.90
13322;DHT22;6730;46.248;6.930;2024-03-22T04:00:19;10.70;99.90
13322;DHT22;6730;46.248;6.930;2024-03-22T04:02:45;10.50;99.90
13322;DHT22;6730;46.248;6.930;2024-03-22T04:05:11;10.50;99.90
13322;DHT22;6730;46.248;6.930;2024-03-22T04:07:36;10.50;99.90
13322;DHT22;6730;46.248;6.930;2024-03-22T04:10:02;10.50;99.90
13322;DHT22;6730;46.248;6.930;2024-03-22T04:12:28;10.50;99.90
13322;DHT22;6730;46.248;6.930;2024-03-22T04:14:55;10.60;99.90
13322;DHT22;6730;46.248;6.930;2024-03-22T04:17:20;10.70;99.90
13322;DHT22;6730;46.248;6.930;2024-03-22T04:19:46;10.80;99.90
13322;DHT22;6730;46.248;6.930;2024-03-22T04:22:11;10.80;99.90
13322;DHT22;6730;46.248;6.930;2024-03-22T04:24:37;10.80;99.90
13322;DHT22;6730;46.248;6.930;2024-03-22T04:27:03;10.90;99.90
13322;DHT22;6730;46.248;6.930;2024-03-22T04:29:29;11.00;99.90
13322;DHT22;6730;46.248;6.930;2024-03-22T04:31:55;10.90;99.90
13322;DHT22;6730;46.248;6.930;2024-03-22T04:34:20;10.70;99.90
13322;DHT22;6730;46.248;6.930;2024-03-22T04:36:46;10.70;99.90
13322;DHT22;6730;46.248;6.930;2024-03-22T04:39:12;10.70;99.90
13322;DHT22;6730;46.248;6.930;2024-03-22T04:41:38;10.70;99.90
13322;DHT22;6730;46.248;6.930;2024-03-22T04:44:03;10.80;99.90
13322;DHT22;6730;46.248;6.930;2024-03-22T04:46:29;10.90;99.90
13322;DHT22;6730;46.248;6.930;2024-03-22T04:48:55;10.90;99.90
13322;DHT22;6730;46.248;6.930;2024-03-22T04:51:21;10.70;99.90
13322;DHT22;6730;46.248;6.930;2024-03-22T04:53:46;10.60;99.90
13322;DHT22;6730;46.248;6.930;2024-03-22T04:56:12;10.60;99.90
13322;DHT22;6730;46.248;6.930;2024-03-22T04:58:37;10.60;99.90
13322;DHT22;6730;46.248;6.930;2024-03-22T05:01:03;10.60;99.90
13322;DHT22;6730;46.248;6.930;2024-03-22T05:03:29;10.70;99.90
13322;DHT22;6730;46.248;6.930;2024-03-22T05:05:55;10.70;99.90
13322;DHT22;6730;46.248;6.930;2024-03-22T05:08:21;10.80;99.90
13322;DHT22;6730;46.248;6.930;2024-03-22T05:10:47;11.00;99.90
13322;DHT22;6730;46.248;6.930;2024-03-22T05:13:13;11.30;99.90
13322;DHT22;6730;46.248;6.930;2024-03-22T05:15:39;11.40;99.90
13322;DHT22;6730;46.248;6.930;2024-03-22T05:18:05;11.60;99.90
13322;DHT22;6730;46.248;6.930;2024-03-22T05:20:30;11.30;99.90
13322;DHT22;6730;46.248;6.930;2024-03-22T05:22:56;11.10;99.90
13322;DHT22;6730;46.248;6.930;2024-03-22T05:25:22;11.10;99.90
13322;DHT22;6730;46.248;6.930;2024-03-22T05:27:47;11.00;99.90
13322;DHT22;6730;46.248;6.930;2024-03-22T05:30:13;11.00;99.90
13322;DHT22;6730;46.248;6.930;2024-03-22T05:32:42;11.00;99.90
13322;DHT22;6730;46.248;6.930;2024-03-22T05:35:08;11.20;99.90
13322;DHT22;6730;46.248;6.930;2024-03-22T05:37:34;11.10;99.90
13322;DHT22;6730;46.248;6.930;2024-03-22T05:40:00;10.90;99.90
13322;DHT22;6730;46.248;6.930;2024-03-22T05:42:26;10.80;99.90
13322;DHT22;6730;46.248;6.930;2024-03-22T05:44:52;10.80;99.90
13322;DHT22;6730;46.248;6.930;2024-03-22T05:47:18;10.70;99.90
13322;DHT22;6730;46.248;6.930;2024-03-22T05:49:45;10.80;99.90
13322;DHT22;6730;46.248;6.930;2024-03-22T05:52:10;10.90;99.90
13322;DHT22;6730;46.248;6.930;2024-03-22T05:54:37;10.90;99.90
13322;DHT22;6730;46.248;6.930;2024-03-22T05:57:03;10.90;99.90
13322;DHT22;6730;46.248;6.930;2024-03-22T05:59:30;11.00;99.90
13322;DHT22;6730;46.248;6.930;2024-03-22T06:01:56;10.90;99.90
13322;DHT22;6730;46.248;6.930;2024-03-22T06:04:21;10.80;99.90
13322;DHT22;6730;46.248;6.930;2024-03-22T06:06:48;10.80;99.90
13322;DHT22;6730;46.248;6.930;2024-03-22T06:09:15;10.90;99.90
13322;DHT22;6730;46.248;6.930;2024-03-22T06:11:49;11.00;99.90
13322;DHT22;6730;46.248;6.930;2024-03-22T06:14:15;11.30;99.90
13322;DHT22;6730;46.248;6.930;2024-03-22T06:16:41;11.30;99.90
13322;DHT22;6730;46.248;6.930;2024-03-22T06:19:06;11.20;99.90
13322;DHT22;6730;46.248;6.930;2024-03-22T06:21:32;11.20;99.90
13322;DHT22;6730;46.248;6.930;2024-03-22T06:23:57;11.30;99.90
13322;DHT22;6730;46.248;6.930;2024-03-22T06:26:23;11.20;99.90
13322;DHT22;6730;46.248;6.930;2024-03-22T06:28:49;11.40;99.90
13322;DHT22;6730;46.248;6.930;2024-03-22T06:31:15;11.30;99.90
13322;DHT22;6730;46.248;6.930;2024-03-22T06:33:40;11.20;99.90
13322;DHT22;6730;46.248;6.930;2024-03-22T06:36:06;11.30;99.90
13322;DHT22;6730;46.248;6.930;2024-03-22T06:38:49;11.60;99.90
13322;DHT22;6730;46.248;6.930;2024-03-22T06:41:15;11.50;99.90
13322;DHT22;6730;46.248;6.930;2024-03-22T06:43:41;11.60;99.90
13322;DHT22;6730;46.248;6.930;2024-03-22T06:46:07;11.40;99.90
13322;DHT22;6730;46.248;6.930;2024-03-22T06:48:32;11.50;99.90
13322;DHT22;6730;46.248;6.930;2024-03-22T06:50:58;11.70;99.90
13322;DHT22;6730;46.248;6.930;2024-03-22T06:53:24;11.70;99.90
13322;DHT22;6730;46.248;6.930;2024-03-22T06:55:49;11.60;99.90
13322;DHT22;6730;46.248;6.930;2024-03-22T06:58:15;11.70;99.90
13322;DHT22;6730;46.248;6.930;2024-03-22T07:00:41;12.00;99.90
13322;DHT22;6730;46.248;6.930;2024-03-22T07:03:07;11.70;99.90
13322;DHT22;6730;46.248;6.930;2024-03-22T07:05:32;11.30;99.90
13322;DHT22;6730;46.248;6.930;2024-03-22T07:07:58;11.30;99.90
13322;DHT22;6730;46.248;6.930;2024-03-22T07:10:24;11.60;99.90
13322;DHT22;6730;46.248;6.930;2024-03-22T07:12:54;11.70;99.90
13322;DHT22;6730;46.248;6.930;2024-03-22T07:15:22;11.60;99.90
13322;DHT22;6730;46.248;6.930;2024-03-22T07:17:48;11.70;99.90
13322;DHT22;6730;46.248;6.930;2024-03-22T07:20:14;12.00;99.90
13322;DHT22;6730;46.248;6.930;2024-03-22T07:22:40;12.20;99.90
13322;DHT22;6730;46.248;6.930;2024-03-22T07:25:06;12.40;99.90
13322;DHT22;6730;46.248;6.930;2024-03-22T07:27:31;12.50;99.90
13322;DHT22;6730;46.248;6.930;2024-03-22T07:29:57;12.60;99.90
13322;DHT22;6730;46.248;6.930;2024-03-22T07:32:23;12.70;99.90
13322;DHT22;6730;46.248;6.930;2024-03-22T07:34:49;12.80;99.90
13322;DHT22;6730;46.248;6.930;2024-03-22T07:37:14;12.50;99.90
13322;DHT22;6730;46.248;6.930;2024-03-22T07:39:40;12.20;99.90
13322;DHT22;6730;46.248;6.930;2024-03-22T07:42:05;12.10;99.90
13322;DHT22;6730;46.248;6.930;2024-03-22T07:44:31;12.30;99.90
13322;DHT22;6730;46.248;6.930;2024-03-22T07:46:57;12.90;99.90
13322;DHT22;6730;46.248;6.930;2024-03-22T07:49:23;13.20;99.90
13322;DHT22;6730;46.248;6.930;2024-03-22T07:51:48;13.50;99.90
13322;DHT22;6730;46.248;6.930;2024-03-22T07:54:14;13.60;99.90
13322;DHT22;6730;46.248;6.930;2024-03-22T07:56:40;13.70;99.90
13322;DHT22;6730;46.248;6.930;2024-03-22T07:59:05;13.70;99.90
13322;DHT22;6730;46.248;6.930;2024-03-22T08:01:31;13.60;99.90
13322;DHT22;6730;46.248;6.930;2024-03-22T08:03:57;13.20;99.90
13322;DHT22;6730;46.248;6.930;2024-03-22T08:06:22;13.30;99.90
13322;DHT22;6730;46.248;6.930;2024-03-22T08:08:48;13.40;99.90
13322;DHT22;6730;46.248;6.930;2024-03-22T08:11:13;13.40;99.90
13322;DHT22;6730;46.248;6.930;2024-03-22T08:13:39;13.50;99.90
13322;DHT22;6730;46.248;6.930;2024-03-22T08:16:05;13.60;99.90
13322;DHT22;6730;46.248;6.930;2024-03-22T08:18:32;13.80;99.90
13322;DHT22;6730;46.248;6.930;2024-03-22T08:20:58;13.80;99.90
13322;DHT22;6730;46.248;6.930;2024-03-22T08:23:24;13.80;99.90
13322;DHT22;6730;46.248;6.930;2024-03-22T08:25:50;13.80;99.90
13322;DHT22;6730;46.248;6.930;2024-03-22T08:28:16;13.90;99.90
13322;DHT22;6730;46.248;6.930;2024-03-22T08:30:43;14.10;99.90
13322;DHT22;6730;46.248;6.930;2024-03-22T08:33:10;14.10;99.90
13322;DHT22;6730;46.248;6.930;2024-03-22T08:35:35;14.00;99.90
13322;DHT22;6730;46.248;6.930;2024-03-22T08:38:01;14.00;99.90
13322;DHT22;6730;46.248;6.930;2024-03-22T08:40:27;13.90;99.90
13322;DHT22;6730;46.248;6.930;2024-03-22T08:42:53;13.90;99.90
13322;DHT22;6730;46.248;6.930;2024-03-22T08:45:19;14.10;99.90
13322;DHT22;6730;46.248;6.930;2024-03-22T08:47:44;14.40;99.90
13322;DHT22;6730;46.248;6.930;2024-03-22T08:50:11;14.60;99.90
13322;DHT22;6730;46.248;6.930;2024-03-22T08:52:37;15.10;99.90
13322;DHT22;6730;46.248;6.930;2024-03-22T08:55:04;15.10;99.90
13322;DHT22;6730;46.248;6.930;2024-03-22T08:57:32;15.10;99.90
13322;DHT22;6730;46.248;6.930;2024-03-22T08:59:59;14.70;99.90
13322;DHT22;6730;46.248;6.930;2024-03-22T09:02:27;14.30;99.90
13322;DHT22;6730;46.248;6.930;2024-03-22T09:04:53;14.30;99.90
13322;DHT22;6730;46.248;6.930;2024-03-22T09:07:22;14.30;99.90
13322;DHT22;6730;46.248;6.930;2024-03-22T09:09:49;14.40;99.90
13322;DHT22;6730;46.248;6.930;2024-03-22T09:12:14;14.30;99.90
13322;DHT22;6730;46.248;6.930;2024-03-22T09:14:40;14.40;99.90
13322;DHT22;6730;46.248;6.930;2024-03-22T09:17:06;14.80;99.90
13322;DHT22;6730;46.248;6.930;2024-03-22T09:19:31;15.10;99.90
13322;DHT22;6730;46.248;6.930;2024-03-22T09:21:57;15.80;99.90
13322;DHT22;6730;46.248;6.930;2024-03-22T09:24:22;16.10;99.90
13322;DHT22;6730;46.248;6.930;2024-03-22T09:26:48;16.00;99.90
13322;DHT22;6730;46.248;6.930;2024-03-22T09:29:14;16.20;99.90
13322;DHT22;6730;46.248;6.930;2024-03-22T09:31:39;16.60;99.90
13322;DHT22;6730;46.248;6.930;2024-03-22T09:34:05;17.10;99.90
13322;DHT22;6730;46.248;6.930;2024-03-22T09:36:31;17.00;99.90
13322;DHT22;6730;46.248;6.930;2024-03-22T09:39:01;16.70;99.90
13322;DHT22;6730;46.248;6.930;2024-03-22T09:41:27;16.40;99.90
13322;DHT22;6730;46.248;6.930;2024-03-22T09:43:55;16.80;99.90
13322;DHT22;6730;46.248;6.930;2024-03-22T09:46:23;17.20;99.90
13322;DHT22;6730;46.248;6.930;2024-03-22T09:48:49;17.30;99.90
13322;DHT22;6730;46.248;6.930;2024-03-22T09:51:16;16.70;99.90
13322;DHT22;6730;46.248;6.930;2024-03-22T09:53:45;16.90;99.90
13322;DHT22;6730;46.248;6.930;2024-03-22T09:56:14;17.00;99.90
13322;DHT22;6730;46.248;6.930;2024-03-22T09:58:44;17.40;99.90
13322;DHT22;6730;46.248;6.930;2024-03-22T10:01:11;16.80;99.90
13322;DHT22;6730;46.248;6.930;2024-03-22T10:03:37;16.80;99.90
13322;DHT22;6730;46.248;6.930;2024-03-22T10:06:03;16.40;99.90
13322;DHT22;6730;46.248;6.930;2024-03-22T10:08:30;16.20;99.90
13322;DHT22;6730;46.248;6.930;2024-03-22T10:10:56;15.40;99.90
13322;DHT22;6730;46.248;6.930;2024-03-22T10:13:21;15.60;99.90
13322;DHT22;6730;46.248;6.930;2024-03-22T10:15:47;15.70;99.90
13322;DHT22;6730;46.248;6.930;2024-03-22T10:18:14;15.70;99.90
13322;DHT22;6730;46.248;6.930;2024-03-22T10:20:41;15.30;99.90
13322;DHT22;6730;46.248;6.930;2024-03-22T10:23:07;14.90;99.90
13322;DHT22;6730;46.248;6.930;2024-03-22T10:25:33;15.60;99.90
13322;DHT22;6730;46.248;6.930;2024-03-22T10:27:59;15.50;99.90
13322;DHT22;6730;46.248;6.930;2024-03-22T10:30:25;15.50;99.90
13322;DHT22;6730;46.248;6.930;2024-03-22T10:32:52;15.40;99.90
13322;DHT22;6730;46.248;6.930;2024-03-22T10:35:18;15.70;99.90
13322;DHT22;6730;46.248;6.930;2024-03-22T10:37:44;15.70;99.90
13322;DHT22;6730;46.248;6.930;2024-03-22T10:40:10;16.50;99.90
13322;DHT22;6730;46.248;6.930;2024-03-22T10:42:41;16.90;99.90
13322;DHT22;6730;46.248;6.930;2024-03-22T10:45:09;16.30;99.90
13322;DHT22;6730;46.248;6.930;2024-03-22T10:47:37;16.80;99.90
13322;DHT22;6730;46.248;6.930;2024-03-22T10:50:10;16.70;99.90
13322;DHT22;6730;46.248;6.930;2024-03-22T10:52:48;16.10;99.90
13322;DHT22;6730;46.248;6.930;2024-03-22T10:55:21;16.30;99.90
13322;DHT22;6730;46.248;6.930;2024-03-22T10:57:48;15.90;99.90
13322;DHT22;6730;46.248;6.930;2024-03-22T11:00:14;15.70;99.90
13322;DHT22;6730;46.248;6.930;2024-03-22T11:02:43;15.70;99.90
13322;DHT22;6730;46.248;6.930;2024-03-22T11:05:17;16.30;99.90
13322;DHT22;6730;46.248;6.930;2024-03-22T11:07:46;16.70;99.90
13322;DHT22;6730;46.248;6.930;2024-03-22T11:10:12;16.80;99.90
13322;DHT22;6730;46.248;6.930;2024-03-22T11:12:39;16.20;99.90
13322;DHT22;6730;46.248;6.930;2024-03-22T11:15:05;16.40;99.90
13322;DHT22;6730;46.248;6.930;2024-03-22T11:17:31;16.60;99.90
13322;DHT22;6730;46.248;6.930;2024-03-22T11:19:57;16.70;99.90
13322;DHT22;6730;46.248;6.930;2024-03-22T11:22:22;16.40;99.90
13322;DHT22;6730;46.248;6.930;2024-03-22T11:24:50;16.20;99.90
13322;DHT22;6730;46.248;6.930;2024-03-22T11:27:16;16.70;99.90
13322;DHT22;6730;46.248;6.930;2024-03-22T11:29:41;16.10;99.90
13322;DHT22;6730;46.248;6.930;2024-03-22T11:32:09;15.70;99.90
13322;DHT22;6730;46.248;6.930;2024-03-22T11:34:37;15.70;99.90
13322;DHT22;6730;46.248;6.930;2024-03-22T11:37:07;16.00;99.90
13322;DHT22;6730;46.248;6.930;2024-03-22T11:39:36;16.10;99.90
13322;DHT22;6730;46.248;6.930;2024-03-22T11:42:03;16.50;99.90
13322;DHT22;6730;46.248;6.930;2024-03-22T11:44:31;16.60;99.90
13322;DHT22;6730;46.248;6.930;2024-03-22T11:46:57;16.70;99.90
13322;DHT22;6730;46.248;6.930;2024-03-22T11:49:24;16.50;99.90
13322;DHT22;6730;46.248;6.930;2024-03-22T11:51:52;16.30;99.90
13322;DHT22;6730;46.248;6.930;2024-03-22T11:54:20;16.10;99.90
13322;DHT22;6730;46.248;6.930;2024-03-22T11:56:46;16.00;99.90
13322;DHT22;6730;46.248;6.930;2024-03-22T11:59:12;16.30;99.90
13322;DHT22;6730;46.248;6.930;2024-03-22T12:01:37;16.80;99.90
13322;DHT22;6730;46.248;6.930;2024-03-22T12:04:04;17.30;99.90
13322;DHT22;6730;46.248;6.930;2024-03-22T12:06:29;17.20;99.90
13322;DHT22;6730;46.248;6.930;2024-03-22T12:08:55;16.90;99.90
13322;DHT22;6730;46.248;6.930;2024-03-22T12:11:21;16.40;99.90
13322;DHT22;6730;46.248;6.930;2024-03-22T12:13:47;16.60;99.90
13322;DHT22;6730;46.248;6.930;2024-03-22T12:16:12;16.30;99.90
13322;DHT22;6730;46.248;6.930;2024-03-22T12:18:38;16.80;99.90
13322;DHT22;6730;46.248;6.930;2024-03-22T12:21:03;16.80;99.90
13322;DHT22;6730;46.248;6.930;2024-03-22T12:23:29;16.90;99.90
13322;DHT22;6730;46.248;6.930;2024-03-22T12:25:55;17.10;99.90
13322;DHT22;6730;46.248;6.930;2024-03-22T12:28:22;17.30;99.90
13322;DHT22;6730;46.248;6.930;2024-03-22T12:30:51;16.60;99.90
13322;DHT22;6730;46.248;6.930;2024-03-22T12:33:17;16.40;99.90
13322;DHT22;6730;46.248;6.930;2024-03-22T12:35:43;16.90;99.90
13322;DHT22;6730;46.248;6.930;2024-03-22T12:38:09;16.80;99.90
13322;DHT22;6730;46.248;6.930;2024-03-22T12:40:37;16.60;99.90
13322;DHT22;6730;46.248;6.930;2024-03-22T12:43:04;16.60;99.90
13322;DHT22;6730;46.248;6.930;2024-03-22T12:45:30;16.70;99.90
13322;DHT22;6730;46.248;6.930;2024-03-22T12:47:55;16.90;99.90
13322;DHT22;6730;46.248;6.930;2024-03-22T12:50:21;17.00;99.90
13322;DHT22;6730;46.248;6.930;2024-03-22T12:52:47;17.50;99.90
13322;DHT22;6730;46.248;6.930;2024-03-22T12:55:13;17.80;99.90
13322;DHT22;6730;46.248;6.930;2024-03-22T12:57:38;18.10;99.90
13322;DHT22;6730;46.248;6.930;2024-03-22T13:00:06;18.00;99.90
13322;DHT22;6730;46.248;6.930;2024-03-22T13:02:41;18.00;99.90
13322;DHT22;6730;46.248;6.930;2024-03-22T13:05:07;18.00;99.90
13322;DHT22;6730;46.248;6.930;2024-03-22T13:07:36;17.70;99.60
13322;DHT22;6730;46.248;6.930;2024-03-22T13:10:02;17.20;99.90
13322;DHT22;6730;46.248;6.930;2024-03-22T13:12:28;17.20;99.90
13322;DHT22;6730;46.248;6.930;2024-03-22T13:14:56;17.40;99.90
13322;DHT22;6730;46.248;6.930;2024-03-22T13:17:22;17.40;99.40
13322;DHT22;6730;46.248;6.930;2024-03-22T13:19:48;17.40;99.90
13322;DHT22;6730;46.248;6.930;2024-03-22T13:22:14;17.40;99.50
13322;DHT22;6730;46.248;6.930;2024-03-22T13:24:46;17.10;98.50
13322;DHT22;6730;46.248;6.930;2024-03-22T13:27:12;16.90;99.90
13322;DHT22;6730;46.248;6.930;2024-03-22T13:29:41;17.20;99.50
13322;DHT22;6730;46.248;6.930;2024-03-22T13:32:07;17.20;98.90
13322;DHT22;6730;46.248;6.930;2024-03-22T13:34:34;17.20;98.50
13322;DHT22;6730;46.248;6.930;2024-03-22T13:37:00;17.30;99.10
13322;DHT22;6730;46.248;6.930;2024-03-22T13:39:26;17.50;99.50
13322;DHT22;6730;46.248;6.930;2024-03-22T13:41:52;17.60;99.80
13322;DHT22;6730;46.248;6.930;2024-03-22T13:44:17;17.80;97.80
13322;DHT22;6730;46.248;6.930;2024-03-22T13:46:43;17.80;98.70
13322;DHT22;6730;46.248;6.930;2024-03-22T13:49:16;17.40;98.40
13322;DHT22;6730;46.248;6.930;2024-03-22T13:51:42;17.20;98.30
13322;DHT22;6730;46.248;6.930;2024-03-22T13:54:09;17.20;98.80
13322;DHT22;6730;46.248;6.930;2024-03-22T13:56:35;17.10;99.20
13322;DHT22;6730;46.248;6.930;2024-03-22T13:59:01;16.90;98.00
13322;DHT22;6730;46.248;6.930;2024-03-22T14:01:27;17.00;98.20
13322;DHT22;6730;46.248;6.930;2024-03-22T14:03:53;16.80;98.20
13322;DHT22;6730;46.248;6.930;2024-03-22T14:06:19;16.70;98.60
13322;DHT22;6730;46.248;6.930;2024-03-22T14:08:44;16.90;98.40
13322;DHT22;6730;46.248;6.930;2024-03-22T14:11:10;16.90;97.20
13322;DHT22;6730;46.248;6.930;2024-03-22T14:13:36;17.00;96.00
13322;DHT22;6730;46.248;6.930;2024-03-22T14:16:01;17.20;96.70
13322;DHT22;6730;46.248;6.930;2024-03-22T14:18:28;17.30;96.60
13322;DHT22;6730;46.248;6.930;2024-03-22T14:20:54;17.10;96.90
13322;DHT22;6730;46.248;6.930;2024-03-22T14:23:20;17.30;96.20
13322;DHT22;6730;46.248;6.930;2024-03-22T14:25:45;16.90;96.10
13322;DHT22;6730;46.248;6.930;2024-03-22T14:28:13;16.80;97.10
13322;DHT22;6730;46.248;6.930;2024-03-22T14:30:38;16.60;96.30
13322;DHT22;6730;46.248;6.930;2024-03-22T14:33:04;16.70;96.10
13322;DHT22;6730;46.248;6.930;2024-03-22T14:35:30;16.70;95.30
13322;DHT22;6730;46.248;6.930;2024-03-22T14:37:56;16.60;95.20
13322;DHT22;6730;46.248;6.930;2024-03-22T14:40:21;16.60;95.80
13322;DHT22;6730;46.248;6.930;2024-03-22T14:42:47;16.70;97.00
13322;DHT22;6730;46.248;6.930;2024-03-22T14:45:13;17.00;95.10
13322;DHT22;6730;46.248;6.930;2024-03-22T14:47:38;16.80;95.50
13322;DHT22;6730;46.248;6.930;2024-03-22T14:50:05;16.80;96.70
13322;DHT22;6730;46.248;6.930;2024-03-22T14:52:31;16.70;96.70
13322;DHT22;6730;46.248;6.930;2024-03-22T14:54:57;16.90;96.20
13322;DHT22;6730;46.248;6.930;2024-03-22T14:57:22;17.20;95.80
13322;DHT22;6730;46.248;6.930;2024-03-22T14:59:48;17.30;95.40
13322;DHT22;6730;46.248;6.930;2024-03-22T15:02:15;16.90;95.10
13322;DHT22;6730;46.248;6.930;2024-03-22T15:04:40;16.70;95.70
13322;DHT22;6730;46.248;6.930;2024-03-22T15:07:06;16.70;95.80
13322;DHT22;6730;46.248;6.930;2024-03-22T15:09:32;16.60;95.10
13322;DHT22;6730;46.248;6.930;2024-03-22T15:11:57;16.60;95.50
13322;DHT22;6730;46.248;6.930;2024-03-22T15:14:25;16.50;95.60
13322;DHT22;6730;46.248;6.930;2024-03-22T15:16:55;16.60;95.50
13322;DHT22;6730;46.248;6.930;2024-03-22T15:19:21;17.00;95.30
13322;DHT22;6730;46.248;6.930;2024-03-22T15:21:47;16.90;96.30
13322;DHT22;6730;46.248;6.930;2024-03-22T15:24:13;17.40;98.70
13322;DHT22;6730;46.248;6.930;2024-03-22T15:26:39;17.90;98.20
13322;DHT22;6730;46.248;6.930;2024-03-22T15:29:04;18.30;97.70
13322;DHT22;6730;46.248;6.930;2024-03-22T15:31:31;18.60;97.70
13322;DHT22;6730;46.248;6.930;2024-03-22T15:33:57;18.80;97.60
13322;DHT22;6730;46.248;6.930;2024-03-22T15:36:22;19.00;97.40
13322;DHT22;6730;46.248;6.930;2024-03-22T15:38:48;19.10;97.10